Time;durP1;ratioP1;P1;durP2;ratioP2;P2;SDS_P1;SDS_P2;PMS_P1;PMS_P2;Temp;Humidity;BMP_temperature;BMP_pressure;BME280_temperature;BME280_humidity;BME280_pressure;Samples;Min_cycle;Max_cycle;Signal;HPM_P1;HPM_P2
2022/10/14 00:01:55;;;;;;;8.37;7.10;;;;;;;14.92;nan;99703.00;4985216;28;20729;-83
2022/10/14 00:04:20;;;;;;;6.40;5.73;;;;;;;14.94;nan;99701.91;4984222;28;20294;-82
2022/10/14 00:06:46;;;;;;;9.00;6.20;;;;;;;14.93;nan;99694.09;4986725;28;20185;-85
2022/10/14 00:09:13;;;;;;;10.45;7.22;;;;;;;14.89;nan;99693.50;4984083;28;20343;-82
2022/10/14 00:11:39;;;;;;;7.67;6.30;;;;;;;14.87;nan;99700.72;4988545;28;20455;-82
2022/10/14 00:14:11;;;;;;;11.27;6.95;;;;;;;14.88;nan;99697.13;4983378;28;20201;-82
2022/10/14 00:16:40;;;;;;;8.43;6.60;;;;;;;14.88;nan;99696.25;4991162;28;20197;-82
2022/10/14 00:19:08;;;;;;;10.52;6.35;;;;;;;14.83;nan;99694.84;4987339;28;20193;-82
2022/10/14 00:21:35;;;;;;;7.32;6.60;;;;;;;14.85;nan;99691.22;4988969;28;20622;-82
2022/10/14 00:24:01;;;;;;;10.57;6.00;;;;;;;14.81;nan;99690.63;4989019;28;20767;-83
2022/10/14 00:26:29;;;;;;;9.63;5.50;;;;;;;14.79;nan;99689.91;4989401;28;20195;-83
2022/10/14 00:28:56;;;;;;;11.25;6.32;;;;;;;14.79;nan;99687.28;4986533;28;20193;-84
2022/10/14 00:31:25;;;;;;;9.90;6.78;;;;;;;14.80;nan;99679.22;4969541;28;20526;-84
2022/10/14 00:33:51;;;;;;;8.43;7.50;;;;;;;14.86;nan;99685.00;4972744;28;20478;-82
2022/10/14 00:36:20;;;;;;;7.30;5.30;;;;;;;14.89;nan;99679.44;4987938;28;20204;-84
2022/10/14 00:38:46;;;;;;;10.40;6.22;;;;;;;14.91;nan;99674.88;4985024;28;20224;-83
2022/10/14 00:41:21;;;;;;;8.20;6.68;;;;;;;14.91;nan;99675.72;4985491;28;20189;-82
2022/10/14 00:43:52;;;;;;;7.47;5.80;;;;;;;14.90;nan;99679.31;4984303;28;20638;-84
2022/10/14 00:46:17;;;;;;;9.00;6.40;;;;;;;14.90;nan;99684.59;4986286;28;20228;-83
2022/10/14 00:48:43;;;;;;;7.50;6.00;;;;;;;14.92;nan;99689.78;4988343;28;20448;-85
2022/10/14 00:51:09;;;;;;;10.50;5.90;;;;;;;14.94;nan;99678.13;4985573;28;20756;-82
2022/10/14 00:53:35;;;;;;;7.90;5.50;;;;;;;14.97;nan;99683.16;4972517;28;20404;-83
2022/10/14 00:56:02;;;;;;;8.23;7.17;;;;;;;15.00;nan;99679.44;4972293;28;20565;-82
2022/10/14 00:58:28;;;;;;;7.78;5.50;;;;;;;15.01;nan;99681.09;4986589;28;20452;-82
2022/10/14 01:00:53;;;;;;;11.80;5.60;;;;;;;15.02;nan;99683.63;4986700;28;20185;-84
2022/10/14 01:03:21;;;;;;;7.20;5.53;;;;;;;15.03;nan;99673.88;4988427;28;20186;-82
2022/10/14 01:05:53;;;;;;;9.38;6.28;;;;;;;15.04;nan;99681.72;4987773;28;20219;-82
2022/10/14 01:08:28;;;;;;;11.43;6.53;;;;;;;15.07;nan;99680.63;4987635;28;20201;-83
2022/10/14 01:11:11;;;;;;;9.18;6.03;;;;;;;15.06;nan;99684.22;4986110;28;20216;-83
2022/10/14 01:13:46;;;;;;;8.98;6.53;;;;;;;15.03;nan;99677.38;4986618;28;20219;-85
2022/10/14 01:16:34;;;;;;;9.73;6.20;;;;;;;15.00;nan;99666.19;4987623;28;20256;-84
2022/10/14 01:19:27;;;;;;;7.10;5.47;;;;;;;14.98;nan;99665.47;4969894;28;20287;-84
2022/10/14 01:22:06;;;;;;;7.63;5.90;;;;;;;14.97;nan;99677.03;4963641;28;20731;-84
2022/10/14 01:24:40;;;;;;;9.13;6.40;;;;;;;14.97;nan;99674.38;4967628;28;20219;-83
2022/10/14 01:27:37;;;;;;;9.75;5.55;;;;;;;14.97;nan;99674.38;4987949;28;20191;-83
2022/10/14 01:30:22;;;;;;;6.95;6.25;;;;;;;14.96;nan;99677.97;4984333;28;20197;-84
2022/10/14 01:32:54;;;;;;;14.65;6.43;;;;;;;14.96;nan;99672.69;4986004;28;20189;-82
2022/10/14 01:35:41;;;;;;;6.60;5.82;;;;;;;14.99;nan;99672.47;4972605;28;20220;-82
2022/10/14 01:38:13;;;;;;;8.68;6.15;;;;;;;14.98;nan;99661.03;4987548;28;20198;-81
2022/10/14 01:40:53;;;;;;;6.82;6.13;;;;;;;14.96;nan;99660.31;4985946;28;20196;-82
2022/10/14 01:43:22;;;;;;;6.90;5.50;;;;;;;14.93;nan;99657.06;4968382;28;20285;-83
2022/10/14 01:45:49;;;;;;;7.90;5.97;;;;;;;14.88;nan;99654.81;4975831;28;20229;-81
2022/10/14 01:48:18;;;;;;;6.07;5.47;;;;;;;14.82;nan;99664.09;4986547;28;20597;-84
2022/10/14 01:50:47;;;;;;;8.75;6.63;;;;;;;14.77;nan;99649.53;4969237;28;20575;-84
2022/10/14 01:53:18;;;;;;;9.73;6.55;;;;;;;14.74;nan;99648.00;4987400;28;20208;-81
2022/10/14 01:55:46;;;;;;;7.88;5.88;;;;;;;14.72;nan;99652.56;4982492;28;20210;-84
2022/10/14 01:58:14;;;;;;;7.53;5.80;;;;;;;14.73;nan;99651.59;4988651;28;20219;-85
2022/10/14 02:00:39;;;;;;;11.02;7.38;;;;;;;14.75;nan;99646.19;4985157;28;20194;-84
2022/10/14 02:03:05;;;;;;;7.53;5.25;;;;;;;14.75;nan;99640.91;4968383;28;20191;-84
2022/10/14 02:05:37;;;;;;;6.90;5.93;;;;;;;14.69;nan;99623.72;4985179;28;20316;-82
2022/10/14 02:08:37;;;;;;;11.93;6.22;;;;;;;14.62;nan;99627.81;4970898;28;20228;-84
2022/10/14 02:11:14;;;;;;;6.38;5.72;;;;;;;14.55;nan;99627.44;4972150;28;20255;-83
2022/10/14 02:13:40;;;;;;;6.40;5.00;;;;;;;14.55;nan;99622.16;4989997;28;20284;-82
2022/10/14 02:16:16;;;;;;;7.07;5.83;;;;;;;14.56;nan;99617.75;4990592;28;20304;-84
2022/10/14 02:18:52;;;;;;;7.43;5.57;;;;;;;14.56;nan;99613.28;4987252;28;20181;-81
2022/10/14 02:21:24;;;;;;;9.35;5.22;;;;;;;14.62;nan;99611.97;4992884;28;20199;-82
2022/10/14 02:23:56;;;;;;;10.35;5.35;;;;;;;14.66;nan;99609.91;4992311;28;20256;-81
2022/10/14 02:26:25;;;;;;;9.00;6.55;;;;;;;14.69;nan;99605.22;4986168;28;20186;-82
2022/10/14 02:28:53;;;;;;;8.48;4.53;;;;;;;14.72;nan;99606.78;4983484;28;20271;-82
2022/10/14 02:31:19;;;;;;;9.60;6.15;;;;;;;14.75;nan;99606.53;4988498;28;20475;-84
2022/10/14 02:33:50;;;;;;;9.03;6.50;;;;;;;14.75;nan;99595.94;4988924;28;20203;-82
2022/10/14 02:36:19;;;;;;;6.35;5.43;;;;;;;14.76;nan;99593.16;4970709;28;20603;-82
2022/10/14 02:38:47;;;;;;;6.65;5.60;;;;;;;14.79;nan;99584.97;4990409;28;20223;-83
2022/10/14 02:41:17;;;;;;;9.90;6.43;;;;;;;14.80;nan;99586.69;4965096;28;20457;-85
2022/10/14 02:43:45;;;;;;;6.47;5.70;;;;;;;14.82;nan;99578.59;4973105;28;20216;-85
2022/10/14 02:46:12;;;;;;;5.93;5.30;;;;;;;14.83;nan;99582.94;4973312;28;20295;-82
2022/10/14 02:48:38;;;;;;;7.82;5.20;;;;;;;14.85;nan;99586.28;4978500;28;20442;-82
2022/10/14 02:51:04;;;;;;;10.73;6.30;;;;;;;14.86;nan;99582.69;4971411;28;20286;-83
2022/10/14 02:53:29;;;;;;;7.20;5.30;;;;;;;14.89;nan;99576.31;4968584;28;20209;-85
2022/10/14 02:55:57;;;;;;;10.05;6.10;;;;;;;14.91;nan;99579.69;4986161;28;20452;-84
2022/10/14 02:58:22;;;;;;;7.80;5.60;;;;;;;14.92;nan;99576.06;4982931;28;20213;-80
2022/10/14 03:00:48;;;;;;;7.43;5.50;;;;;;;14.91;nan;99577.88;4983097;28;20763;-80
2022/10/14 03:03:14;;;;;;;8.07;5.55;;;;;;;14.92;nan;99568.97;4972771;28;20178;-80
2022/10/14 03:05:40;;;;;;;7.97;6.07;;;;;;;14.91;nan;99574.38;4971670;28;20292;-80
2022/10/14 03:08:10;;;;;;;6.05;5.45;;;;;;;14.92;nan;99565.47;4980626;28;20186;-81
2022/10/14 03:10:37;;;;;;;10.18;6.30;;;;;;;14.92;nan;99568.13;4967813;28;20193;-80
2022/10/14 03:13:02;;;;;;;7.93;6.47;;;;;;;14.95;nan;99567.88;4962909;28;20574;-81
2022/10/14 03:15:34;;;;;;;9.50;5.85;;;;;;;14.96;nan;99559.81;4966243;28;20213;-80
2022/10/14 03:17:59;;;;;;;7.00;5.30;;;;;;;14.97;nan;99560.66;4967089;28;20196;-81
2022/10/14 03:20:34;;;;;;;11.73;6.13;;;;;;;14.98;nan;99555.22;4966802;28;20189;-82
2022/10/14 03:22:59;;;;;;;9.93;5.20;;;;;;;14.97;nan;99552.72;4984662;28;20181;-82
2022/10/14 03:25:26;;;;;;;8.35;5.97;;;;;;;14.95;nan;99562.56;4982697;28;20487;-84
2022/10/14 03:27:58;;;;;;;7.18;6.10;;;;;;;14.92;nan;99555.72;4988428;28;20174;-84
2022/10/14 03:30:35;;;;;;;10.10;5.43;;;;;;;14.92;nan;99561.03;4968672;28;20198;-82
2022/10/14 03:33:08;;;;;;;9.18;5.80;;;;;;;14.93;nan;99557.44;4985184;28;20453;-84
2022/10/14 03:35:50;;;;;;;6.78;5.50;;;;;;;14.92;nan;99554.91;4985514;28;20466;-82
2022/10/14 03:38:20;;;;;;;10.73;5.50;;;;;;;14.93;nan;99551.28;4967942;28;20213;-82
2022/10/14 03:40:46;;;;;;;7.45;5.47;;;;;;;14.95;nan;99546.72;4969919;28;20293;-83
2022/10/14 03:43:12;;;;;;;9.83;6.40;;;;;;;14.94;nan;99545.88;4968734;28;20326;-84
2022/10/14 03:45:57;;;;;;;10.02;5.07;;;;;;;14.94;nan;99550.34;4968043;28;20472;-85
2022/10/14 03:48:24;;;;;;;11.30;5.82;;;;;;;14.93;nan;99545.97;4975186;28;20204;-82
2022/10/14 03:50:49;;;;;;;9.67;5.93;;;;;;;14.93;nan;99540.69;4970468;28;20188;-82
2022/10/14 03:53:17;;;;;;;8.40;6.63;;;;;;;14.93;nan;99538.91;4987720;28;20197;-82
2022/10/14 03:55:43;;;;;;;10.30;7.10;;;;;;;14.94;nan;99530.00;4969728;28;20436;-85
2022/10/14 03:58:10;;;;;;;8.43;5.80;;;;;;;14.96;nan;99529.84;4985256;28;20186;-84
2022/10/14 04:00:36;;;;;;;10.50;5.40;;;;;;;14.97;nan;99520.97;4986425;28;20539;-83
2022/10/14 04:03:34;;;;;;;6.43;5.30;;;;;;;14.96;nan;99524.56;4961595;28;20190;-83
2022/10/14 04:05:59;;;;;;;7.00;5.93;;;;;;;14.95;nan;99518.44;4965813;28;20213;-82
2022/10/14 04:08:27;;;;;;;7.30;6.45;;;;;;;14.94;nan;99514.13;4969279;28;20546;-84
2022/10/14 04:10:57;;;;;;;7.22;5.15;;;;;;;14.94;nan;99518.59;4975116;28;20271;-84
2022/10/14 04:13:25;;;;;;;12.00;5.63;;;;;;;14.92;nan;99512.59;4984077;28;20747;-83
2022/10/14 04:15:50;;;;;;;7.23;5.37;;;;;;;14.91;nan;99500.34;4968310;28;20474;-84
2022/10/14 04:18:23;;;;;;;6.43;5.13;;;;;;;14.87;nan;99504.19;4968655;28;20443;-84
2022/10/14 04:20:50;;;;;;;6.13;4.82;;;;;;;14.85;nan;99498.19;4974804;28;20222;-84
2022/10/14 04:23:19;;;;;;;7.13;5.05;;;;;;;14.79;nan;99495.06;4969018;28;20178;-82
2022/10/14 04:25:48;;;;;;;8.32;4.90;;;;;;;14.78;nan;99501.34;4972066;28;20312;-81
2022/10/14 04:28:14;;;;;;;7.23;5.10;;;;;;;14.76;nan;99497.97;4970940;28;20345;-83
2022/10/14 04:30:47;;;;;;;8.48;5.05;;;;;;;14.75;nan;99484.91;4968979;28;20441;-85
2022/10/14 04:33:21;;;;;;;6.88;4.78;;;;;;;14.73;nan;99487.66;4982759;28;20213;-82
2022/10/14 04:35:48;;;;;;;5.57;4.68;;;;;;;14.72;nan;99475.41;4975220;28;20300;-84
2022/10/14 04:38:20;;;;;;;6.93;5.07;;;;;;;14.75;nan;99480.44;4975398;28;20741;-83
2022/10/14 04:40:53;;;;;;;5.65;4.47;;;;;;;14.78;nan;99476.72;4976187;28;20288;-82
2022/10/14 04:43:19;;;;;;;9.85;5.82;;;;;;;14.79;nan;99476.56;4975221;28;20194;-85
2022/10/14 04:45:46;;;;;;;8.27;4.25;;;;;;;14.81;nan;99474.66;4991036;28;20287;-81
2022/10/14 04:48:19;;;;;;;15.65;6.53;;;;;;;14.81;nan;99471.16;4965151;28;20333;-81
2022/10/14 04:50:48;;;;;;;10.38;5.65;;;;;;;14.81;nan;99472.00;4963368;28;20404;-81
2022/10/14 04:53:38;;;;;;;6.13;4.75;;;;;;;14.80;nan;99466.84;4961713;28;20214;-80
2022/10/14 04:56:32;;;;;;;4.85;4.03;;;;;;;14.81;nan;99460.59;4965022;28;20677;-80
2022/10/14 04:59:01;;;;;;;7.88;4.40;;;;;;;14.83;nan;99461.31;4960590;28;20211;-80
2022/10/14 05:01:47;;;;;;;5.65;4.15;;;;;;;14.83;nan;99446.28;4965334;28;20224;-81
2022/10/14 05:04:13;;;;;;;10.00;4.67;;;;;;;14.86;nan;99449.63;4958841;28;20249;-80
2022/10/14 05:06:40;;;;;;;8.80;5.57;;;;;;;14.87;nan;99448.66;4972805;28;21067;-80
2022/10/14 05:09:09;;;;;;;5.18;4.40;;;;;;;14.89;nan;99449.38;4955673;28;20189;-79
2022/10/14 05:11:35;;;;;;;5.65;5.07;;;;;;;14.91;nan;99452.72;4966654;28;20198;-81
2022/10/14 05:14:01;;;;;;;6.93;4.45;;;;;;;14.93;nan;99456.94;4974270;28;20277;-80
2022/10/14 05:16:28;;;;;;;5.72;4.60;;;;;;;14.93;nan;99442.84;4960179;28;20562;-80
2022/10/14 05:18:54;;;;;;;7.55;4.82;;;;;;;14.93;nan;99440.19;4956649;28;20185;-80
2022/10/14 05:21:21;;;;;;;6.55;5.00;;;;;;;14.92;nan;99438.53;4976699;28;20232;-80
2022/10/14 05:23:58;;;;;;;5.38;4.07;;;;;;;14.94;nan;99441.91;4960704;28;20177;-81
2022/10/14 05:26:26;;;;;;;5.80;4.75;;;;;;;14.93;nan;99441.06;4968795;28;20194;-80
2022/10/14 05:28:52;;;;;;;5.50;4.88;;;;;;;14.94;nan;99441.91;4956542;28;20212;-80
2022/10/14 05:31:19;;;;;;;8.23;4.57;;;;;;;14.94;nan;99440.09;4958772;28;20206;-80
2022/10/14 05:33:52;;;;;;;7.90;4.00;;;;;;;14.96;nan;99437.28;4961033;28;20185;-80
2022/10/14 05:36:18;;;;;;;7.73;5.27;;;;;;;14.96;nan;99437.28;4959430;28;20189;-80
2022/10/14 05:38:43;;;;;;;8.00;7.20;;;;;;;14.95;nan;99433.81;4977123;28;20246;-81
2022/10/14 05:41:09;;;;;;;8.37;5.50;;;;;;;14.95;nan;99430.34;4957965;28;20189;-80
2022/10/14 05:43:34;;;;;;;5.60;3.87;;;;;;;14.94;nan;99423.38;4960529;28;20244;-80
2022/10/14 05:46:03;;;;;;;10.77;4.90;;;;;;;14.96;nan;99418.78;4962291;28;20396;-80
2022/10/14 05:48:32;;;;;;;6.70;4.65;;;;;;;15.00;nan;99422.84;4966804;28;20289;-81
2022/10/14 05:51:01;;;;;;;6.33;4.50;;;;;;;15.02;nan;99424.41;4964377;28;20288;-80
2022/10/14 05:53:27;;;;;;;6.75;4.13;;;;;;;15.05;nan;99421.50;4963751;28;20460;-81
2022/10/14 05:56:05;;;;;;;6.07;4.30;;;;;;;15.07;nan;99421.38;4979753;28;20216;-80
2022/10/14 05:58:31;;;;;;;5.10;4.18;;;;;;;15.09;nan;99422.06;4960664;28;20205;-79
2022/10/14 06:00:59;;;;;;;7.68;4.05;;;;;;;15.10;nan;99412.34;4982303;28;20202;-78
2022/10/14 06:03:25;;;;;;;5.97;4.25;;;;;;;15.10;nan;99420.28;4979168;28;20176;-79
2022/10/14 06:05:50;;;;;;;7.10;4.43;;;;;;;15.11;nan;99417.47;4978372;28;20213;-79
2022/10/14 06:08:16;;;;;;;6.47;4.87;;;;;;;15.10;nan;99422.91;4960293;28;20933;-79
2022/10/14 06:10:42;;;;;;;8.82;4.93;;;;;;;15.04;nan;99424.25;4961115;28;20283;-79
2022/10/14 06:13:08;;;;;;;5.50;4.03;;;;;;;15.00;nan;99425.50;4979798;28;20443;-79
2022/10/14 06:15:36;;;;;;;8.05;3.55;;;;;;;14.94;nan;99428.66;4962655;28;20677;-79
2022/10/14 06:18:01;;;;;;;5.80;4.47;;;;;;;14.91;nan;99431.56;4966664;28;20856;-79
2022/10/14 06:20:27;;;;;;;5.83;4.13;;;;;;;14.91;nan;99426.28;4984966;28;20291;-79
2022/10/14 06:22:52;;;;;;;7.60;4.37;;;;;;;14.91;nan;99426.28;4984163;28;20193;-79
2022/10/14 06:25:18;;;;;;;11.10;5.50;;;;;;;14.92;nan;99425.31;4986839;28;20209;-79
2022/10/14 06:27:43;;;;;;;5.77;4.63;;;;;;;14.92;nan;99418.22;4986986;28;20277;-79
2022/10/14 06:30:10;;;;;;;6.63;5.60;;;;;;;14.94;nan;99421.56;4980312;28;20213;-79
2022/10/14 06:32:35;;;;;;;7.22;4.95;;;;;;;14.96;nan;99422.28;4980119;28;20493;-79
2022/10/14 06:35:00;;;;;;;10.03;5.27;;;;;;;15.00;nan;99425.50;4976221;28;20762;-79
2022/10/14 06:37:26;;;;;;;6.53;5.77;;;;;;;15.02;nan;99423.56;4976335;28;20194;-82
2022/10/14 06:39:51;;;;;;;6.20;4.87;;;;;;;15.03;nan;99430.53;4973295;28;20198;-81
2022/10/14 06:42:17;;;;;;;8.60;5.67;;;;;;;15.03;nan;99433.16;4975488;28;20186;-81
2022/10/14 06:44:44;;;;;;;9.70;6.45;;;;;;;15.06;nan;99427.59;4972394;28;20229;-81
2022/10/14 06:47:09;;;;;;;10.13;6.50;;;;;;;15.10;nan;99425.56;4974542;28;20284;-81
2022/10/14 06:49:35;;;;;;;7.80;6.50;;;;;;;15.12;nan;99428.88;4974837;28;20189;-80
2022/10/14 06:52:00;;;;;;;10.20;7.27;;;;;;;15.15;nan;99423.34;4957999;28;20567;-80
2022/10/14 06:54:26;;;;;;;9.30;6.53;;;;;;;15.17;nan;99427.53;4969791;28;20589;-82
2022/10/14 06:56:51;;;;;;;8.63;6.20;;;;;;;15.22;nan;99435.09;4972270;28;20819;-80
2022/10/14 06:59:16;;;;;;;8.43;6.60;;;;;;;15.25;nan;99429.53;4969437;28;20532;-81
2022/10/14 07:01:42;;;;;;;9.90;6.80;;;;;;;15.30;nan;99432.63;4972076;28;20264;-80
2022/10/14 07:04:07;;;;;;;12.10;7.17;;;;;;;15.36;nan;99431.25;4970702;28;20212;-81
2022/10/14 07:06:33;;;;;;;8.80;5.30;;;;;;;15.41;nan;99426.41;4974815;28;20259;-81
2022/10/14 07:08:58;;;;;;;7.53;5.53;;;;;;;15.48;nan;99432.84;4970290;28;20281;-81
2022/10/14 07:11:23;;;;;;;8.37;6.70;;;;;;;15.53;nan;99422.69;4972604;28;20201;-80
2022/10/14 07:13:49;;;;;;;5.83;5.20;;;;;;;15.59;nan;99427.44;4969136;28;20212;-80
2022/10/14 07:16:14;;;;;;;8.87;6.10;;;;;;;15.62;nan;99429.81;4972016;28;20213;-81
2022/10/14 07:18:40;;;;;;;6.70;5.63;;;;;;;15.65;nan;99428.72;4971750;28;20185;-81
2022/10/14 07:21:07;;;;;;;5.83;4.90;;;;;;;15.70;nan;99430.03;4970626;28;20197;-82
2022/10/14 07:23:33;;;;;;;8.23;5.28;;;;;;;15.76;nan;99425.16;4957254;28;20182;-80
2022/10/14 07:25:59;;;;;;;7.40;4.90;;;;;;;15.80;nan;99419.47;4974047;28;20737;-80
2022/10/14 07:28:25;;;;;;;17.30;7.00;;;;;;;15.84;nan;99430.63;4976327;28;20276;-80
2022/10/14 07:31:16;;;;;;;13.60;5.73;;;;;;;15.88;nan;99430.22;4973719;28;20253;-81
2022/10/14 07:33:42;;;;;;;12.27;6.38;;;;;;;15.90;nan;99427.41;4969091;28;20458;-80
2022/10/14 07:36:11;;;;;;;10.73;5.53;;;;;;;15.93;nan;99435.94;4972975;28;20621;-81
2022/10/14 07:38:37;;;;;;;8.35;5.53;;;;;;;15.95;nan;99441.09;4973504;28;20198;-81
2022/10/14 07:41:15;;;;;;;5.30;4.80;;;;;;;15.98;nan;99443.47;4975072;28;20225;-80
2022/10/14 07:43:42;;;;;;;16.08;5.53;;;;;;;15.99;nan;99447.81;4971496;28;20235;-82
2022/10/14 07:46:07;;;;;;;7.57;5.07;;;;;;;16.00;nan;99444.19;4973393;28;20550;-82
2022/10/14 07:48:34;;;;;;;6.17;4.70;;;;;;;16.00;nan;99443.34;4973104;28;20821;-81
2022/10/14 07:51:00;;;;;;;8.18;5.90;;;;;;;16.00;nan;99446.81;4972045;28;20681;-82
2022/10/14 07:53:26;;;;;;;9.17;4.93;;;;;;;16.00;nan;99446.81;4975439;28;20206;-81
2022/10/14 07:55:54;;;;;;;7.13;4.40;;;;;;;16.00;nan;99452.13;4972869;28;20246;-80
2022/10/14 07:58:22;;;;;;;5.80;4.32;;;;;;;16.03;nan;99445.72;4972411;28;20797;-81
2022/10/14 08:00:49;;;;;;;6.07;4.40;;;;;;;16.04;nan;99453.53;4975468;28;20199;-81
2022/10/14 08:03:15;;;;;;;11.20;5.50;;;;;;;16.05;nan;99451.72;4977120;28;20202;-81
2022/10/14 08:05:41;;;;;;;5.82;4.47;;;;;;;16.07;nan;99442.66;4973347;28;20211;-80
2022/10/14 08:08:07;;;;;;;6.90;5.30;;;;;;;16.11;nan;99443.22;4976356;28;20229;-80
2022/10/14 08:10:32;;;;;;;12.63;5.10;;;;;;;16.14;nan;99445.59;4973756;28;20456;-82
2022/10/14 08:12:58;;;;;;;6.93;4.90;;;;;;;16.18;nan;99440.88;4978420;28;20484;-82
2022/10/14 08:15:27;;;;;;;6.45;4.90;;;;;;;16.19;nan;99434.59;4975479;28;20283;-80
2022/10/14 08:17:53;;;;;;;5.38;4.50;;;;;;;16.23;nan;99443.91;4956145;28;20241;-80
2022/10/14 08:20:19;;;;;;;6.23;4.70;;;;;;;16.28;nan;99444.34;4977147;28;20198;-82
2022/10/14 08:22:44;;;;;;;5.93;4.23;;;;;;;16.32;nan;99443.94;4976553;28;20445;-81
2022/10/14 08:25:10;;;;;;;7.13;4.47;;;;;;;16.38;nan;99447.84;4977539;28;20540;-81
2022/10/14 08:27:35;;;;;;;6.90;5.00;;;;;;;16.43;nan;99448.28;4975575;28;20190;-80
2022/10/14 08:30:01;;;;;;;7.13;4.70;;;;;;;16.47;nan;99452.34;4978203;28;20803;-81
2022/10/14 08:32:27;;;;;;;6.67;4.60;;;;;;;16.53;nan;99448.28;4976332;28;20213;-80
2022/10/14 08:34:54;;;;;;;11.33;5.63;;;;;;;16.57;nan;99442.53;4977927;28;20225;-81
2022/10/14 08:37:20;;;;;;;7.82;5.32;;;;;;;16.57;nan;99442.53;4974997;28;20204;-81
2022/10/14 08:39:46;;;;;;;8.80;4.70;;;;;;;16.60;nan;99452.88;4971135;28;20197;-80
2022/10/14 08:42:35;;;;;;;7.80;6.10;;;;;;;16.65;nan;99452.47;4971659;28;20231;-81
2022/10/14 08:45:07;;;;;;;8.93;5.50;;;;;;;16.68;nan;99448.69;4973092;28;20526;-81
2022/10/14 08:47:43;;;;;;;7.13;4.65;;;;;;;16.72;nan;99435.00;4971432;28;20259;-81
2022/10/14 08:50:35;;;;;;;6.07;4.60;;;;;;;16.76;nan;99432.91;4974263;28;20221;-81
2022/10/14 08:53:09;;;;;;;8.95;4.72;;;;;;;16.79;nan;99432.66;4975742;28;20341;-81
2022/10/14 08:55:46;;;;;;;7.20;4.53;;;;;;;16.87;nan;99437.25;4978465;28;20232;-83
2022/10/14 08:58:22;;;;;;;5.45;4.45;;;;;;;16.92;nan;99438.50;4988894;28;20195;-83
2022/10/14 09:00:52;;;;;;;9.25;5.85;;;;;;;16.97;nan;99430.94;4982659;28;20184;-79
2022/10/14 09:03:22;;;;;;;6.65;5.47;;;;;;;16.96;nan;99439.91;4980024;28;20642;-80
2022/10/14 09:06:01;;;;;;;7.03;5.00;;;;;;;16.96;nan;99439.06;4973640;28;20238;-80
2022/10/14 09:08:37;;;;;;;6.18;5.60;;;;;;;16.99;nan;99438.78;4975400;28;20678;-80
2022/10/14 09:11:05;;;;;;;5.72;4.00;;;;;;;16.97;nan;99430.13;4974969;28;20193;-80
2022/10/14 09:13:38;;;;;;;10.93;4.70;;;;;;;16.93;nan;99437.53;4974407;28;20697;-80
2022/10/14 09:16:18;;;;;;;12.73;5.40;;;;;;;16.93;nan;99436.69;4975182;28;20230;-80
2022/10/14 09:18:49;;;;;;;6.53;4.00;;;;;;;16.94;nan;99431.25;4976339;28;20986;-80
2022/10/14 09:21:20;;;;;;;8.05;4.38;;;;;;;17.00;nan;99424.53;4975553;28;20272;-80
2022/10/14 09:23:46;;;;;;;8.93;4.22;;;;;;;17.02;nan;99417.25;4974248;28;20208;-80
2022/10/14 09:26:18;;;;;;;6.07;4.20;;;;;;;17.06;nan;99421.28;4949065;28;20206;-80
2022/10/14 09:28:44;;;;;;;7.25;4.63;;;;;;;17.09;nan;99417.50;4976867;28;21052;-80
2022/10/14 09:31:11;;;;;;;6.65;4.35;;;;;;;17.14;nan;99420.56;4977535;28;20199;-80
2022/10/14 09:33:40;;;;;;;6.32;4.97;;;;;;;17.21;nan;99421.69;4976459;28;20666;-80
2022/10/14 09:36:18;;;;;;;6.78;4.32;;;;;;;17.26;nan;99408.81;4977575;28;20219;-80
2022/10/14 09:38:47;;;;;;;6.70;3.55;;;;;;;17.32;nan;99412.72;4977656;28;20190;-80
2022/10/14 09:41:15;;;;;;;5.55;4.45;;;;;;;17.35;nan;99407.94;4976055;28;20201;-79
2022/10/14 09:44:17;;;;;;;5.70;3.85;;;;;;;17.35;nan;99402.63;4974130;28;20186;-81
2022/10/14 09:46:47;;;;;;;5.95;4.30;;;;;;;17.38;nan;99401.50;4977350;28;20207;-82
2022/10/14 09:49:18;;;;;;;8.60;4.10;;;;;;;17.43;nan;99409.84;4974933;28;20199;-81
2022/10/14 09:51:44;;;;;;;14.77;4.50;;;;;;;17.50;nan;99410.97;4978146;28;20198;-81
2022/10/14 09:54:21;;;;;;;4.40;3.47;;;;;;;17.59;nan;99410.06;4974723;28;20360;-83
2022/10/14 09:56:48;;;;;;;8.43;3.35;;;;;;;17.69;nan;99404.72;4978912;28;20227;-81
2022/10/14 09:59:20;;;;;;;5.40;2.33;;;;;;;17.82;nan;99407.03;4979147;28;20430;-82
2022/10/14 10:02:01;;;;;;;3.95;2.60;;;;;;;17.95;nan;99401.38;4978358;28;20212;-82
2022/10/14 10:04:45;;;;;;;4.53;2.63;;;;;;;18.09;nan;99393.72;4976644;28;20201;-82
2022/10/14 10:07:40;;;;;;;2.50;2.13;;;;;;;18.27;nan;99393.72;4980260;28;20950;-81
2022/10/14 10:10:23;;;;;;;3.00;1.97;;;;;;;18.44;nan;99399.16;4954038;28;20467;-81
2022/10/14 10:12:49;;;;;;;6.10;2.30;;;;;;;18.60;nan;99395.81;4978565;28;20472;-81
2022/10/14 10:15:22;;;;;;;3.43;3.13;;;;;;;18.68;nan;99398.53;4985064;28;20478;-79
2022/10/14 10:17:49;;;;;;;3.20;2.13;;;;;;;18.70;nan;99389.41;4983879;28;20193;-80
2022/10/14 10:20:17;;;;;;;3.20;1.67;;;;;;;18.72;nan;99398.06;4982634;28;20450;-79
2022/10/14 10:22:43;;;;;;;4.87;2.93;;;;;;;18.76;nan;99387.97;4978851;28;21237;-85
2022/10/14 10:25:08;;;;;;;4.23;2.67;;;;;;;18.77;nan;99385.19;4978113;28;20467;-80
2022/10/14 10:27:39;;;;;;;3.60;2.40;;;;;;;18.77;nan;99389.66;4977418;28;20478;-81
2022/10/14 10:30:17;;;;;;;1.83;1.67;;;;;;;18.77;nan;99384.34;4977304;28;20196;-83
2022/10/14 10:32:51;;;;;;;3.50;1.97;;;;;;;18.74;nan;99388.16;4974285;28;20479;-83
2022/10/14 10:35:31;;;;;;;4.50;1.70;;;;;;;18.76;nan;99385.31;4984227;28;20832;-82
2022/10/14 10:38:14;;;;;;;2.53;1.90;;;;;;;18.77;nan;99387.84;4981917;28;21469;-84
2022/10/14 10:41:14;;;;;;;2.50;1.80;;;;;;;18.78;nan;99381.50;4977286;28;20436;-84
2022/10/14 10:44:18;;;;;;;5.37;1.90;;;;;;;18.82;nan;99371.38;4982527;28;20450;-83
2022/10/14 10:47:02;;;;;;;3.20;2.20;;;;;;;18.86;nan;99366.59;4961103;23;20804;-75
2022/10/14 10:49:56;;;;;;;4.60;1.90;;;;;;;18.87;nan;99368.25;4921877;28;20686;-75
2022/10/14 10:52:43;;;;;;;1.97;1.47;;;;;;;18.88;nan;99360.13;4935435;28;20545;-75
2022/10/14 10:55:27;;;;;;;2.20;1.77;;;;;;;18.89;nan;99364.47;4949452;28;20453;-75
2022/10/14 10:58:11;;;;;;;2.97;1.60;;;;;;;18.97;nan;99359.19;4936909;28;20442;-75
2022/10/14 11:01:03;;;;;;;2.73;2.23;;;;;;;19.07;nan;99358.25;4936297;28;20461;-75
2022/10/14 11:03:53;;;;;;;2.50;1.63;;;;;;;19.13;nan;99347.78;4936499;28;21073;-75
2022/10/14 11:12:26;;;;;;;2.40;2.20;;;;;;;19.13;nan;99342.47;4937207;28;20940;-75
2022/10/14 11:14:58;;;;;;;3.17;2.03;;;;;;;19.13;nan;99336.31;4939117;28;20881;-75
2022/10/14 11:17:26;;;;;;;3.13;1.50;;;;;;;19.10;nan;99340.13;4935690;28;20488;-75
2022/10/14 11:20:19;;;;;;;3.07;1.87;;;;;;;19.07;nan;99327.13;4933710;28;20483;-75
2022/10/14 11:23:05;;;;;;;2.97;1.90;;;;;;;19.08;nan;99322.63;4936451;28;20457;-75
2022/10/14 11:25:54;;;;;;;3.23;1.90;;;;;;;19.10;nan;99328.66;4938101;28;21127;-75
2022/10/14 11:28:37;;;;;;;3.00;2.33;;;;;;;19.15;nan;99323.69;4935593;28;20439;-75
2022/10/14 11:31:11;;;;;;;2.60;1.90;;;;;;;19.22;nan;99316.72;4937535;28;20449;-75
2022/10/14 11:33:51;;;;;;;2.60;2.10;;;;;;;19.28;nan;99310.75;4934402;28;20455;-75
2022/10/14 11:36:16;;;;;;;3.30;2.00;;;;;;;19.30;nan;99310.59;4936371;28;20214;-75
2022/10/14 11:39:19;;;;;;;2.10;1.80;;;;;;;19.31;nan;99310.44;4938068;28;20829;-75
2022/10/14 11:42:25;;;;;;;3.27;2.00;;;;;;;19.34;nan;99309.28;4938207;28;20187;-75
2022/10/14 11:45:09;;;;;;;3.33;1.90;;;;;;;19.34;nan;99294.13;4937859;28;20450;-75
2022/10/14 11:47:39;;;;;;;3.00;2.17;;;;;;;19.33;nan;99299.59;4937553;28;20612;-75
2022/10/14 11:50:38;;;;;;;2.10;1.50;;;;;;;19.34;nan;99293.31;4936431;28;20706;-75
2022/10/14 11:53:12;;;;;;;3.23;2.70;;;;;;;19.33;nan;99292.44;4952502;28;20489;-75
2022/10/14 11:55:43;;;;;;;4.80;2.13;;;;;;;19.34;nan;99285.31;4936482;28;20473;-75
2022/10/14 11:58:14;;;;;;;2.07;1.87;;;;;;;19.34;nan;99282.66;4936960;28;20450;-75
2022/10/14 12:00:44;;;;;;;3.57;1.97;;;;;;;19.38;nan;99286.63;4936744;28;20823;-75
2022/10/14 12:03:28;;;;;;;3.27;2.63;;;;;;;19.48;nan;99281.19;4937933;28;20835;-75
2022/10/14 12:06:14;;;;;;;4.97;2.00;;;;;;;19.54;nan;99280.53;4937885;28;20557;-75
2022/10/14 12:08:57;;;;;;;2.63;2.20;;;;;;;19.50;nan;99274.69;4936981;28;20449;-75
2022/10/14 12:11:34;;;;;;;11.20;3.30;;;;;;;19.46;nan;99282.16;4939050;28;20442;-75
2022/10/14 12:14:12;;;;;;;5.60;3.50;;;;;;;19.46;nan;99274.16;4937976;28;20502;-75
2022/10/14 12:16:44;;;;;;;2.00;1.50;;;;;;;19.51;nan;99276.34;4937969;28;20538;-75